createdAt,value
2018-10-12T00:01:13.034Z,21.97
2018-10-12T00:03:42.245Z,22.50
2018-10-12T00:06:11.515Z,27.43
2018-10-12T00:08:40.997Z,23.53
2018-10-12T00:11:10.208Z,23.53
2018-10-12T00:13:39.352Z,25.93
2018-10-12T00:16:08.525Z,24.03
2018-10-12T00:18:37.730Z,25.53
2018-10-12T00:21:06.909Z,25.80
2018-10-12T00:23:36.096Z,21.80
2018-10-12T00:26:05.328Z,23.07
2018-10-12T00:28:34.512Z,27.10
2018-10-12T00:31:03.660Z,25.75
2018-10-12T00:33:32.829Z,25.73
2018-10-12T00:36:02.094Z,29.53
2018-10-12T00:38:31.295Z,24.47
2018-10-12T00:41:00.420Z,23.97
2018-10-12T00:43:29.613Z,23.40
2018-10-12T00:45:58.821Z,27.20
2018-10-12T00:48:28.001Z,23.33
2018-10-12T00:50:57.221Z,23.33
2018-10-12T00:53:26.383Z,23.53
2018-10-12T00:55:55.509Z,23.70
2018-10-12T00:58:24.703Z,24.70
2018-10-12T01:00:53.973Z,20.70
2018-10-12T01:03:23.121Z,22.90
2018-10-12T01:05:52.296Z,24.60
2018-10-12T01:08:21.500Z,23.73
2018-10-12T01:10:50.695Z,23.40
2018-10-12T01:13:19.948Z,26.33
2018-10-12T01:15:49.163Z,22.30
2018-10-12T01:18:18.376Z,21.47
2018-10-12T01:20:47.680Z,25.13
2018-10-12T01:23:16.817Z,26.50
2018-10-12T01:25:46.016Z,23.57
2018-10-12T01:28:15.202Z,23.37
2018-10-12T01:30:44.454Z,24.95
2018-10-12T01:33:13.633Z,22.90
2018-10-12T01:35:42.850Z,23.03
2018-10-12T01:38:11.985Z,21.47
2018-10-12T01:40:41.176Z,23.70
2018-10-12T01:43:10.354Z,24.72
2018-10-12T01:45:39.563Z,21.95
2018-10-12T01:48:08.750Z,22.53
2018-10-12T01:50:37.928Z,23.17
2018-10-12T01:53:07.171Z,29.10
2018-10-12T01:55:36.385Z,22.10
2018-10-12T01:58:05.497Z,24.07
2018-10-12T02:00:34.728Z,25.87
2018-10-12T02:03:03.886Z,24.60
2018-10-12T02:05:33.158Z,22.47
2018-10-12T02:08:02.347Z,26.03
2018-10-12T02:10:31.577Z,23.23
2018-10-12T02:13:00.765Z,25.00
2018-10-12T02:15:30.038Z,27.32
2018-10-12T02:17:59.196Z,23.70
2018-10-12T02:20:28.368Z,24.30
2018-10-12T02:22:57.547Z,27.47
2018-10-12T02:25:26.692Z,26.70
2018-10-12T02:27:55.885Z,23.03
2018-10-12T02:30:25.108Z,29.65
2018-10-12T02:32:54.244Z,24.95
2018-10-12T02:35:23.482Z,24.50
2018-10-12T02:37:52.572Z,26.63
2018-10-12T02:40:21.697Z,25.43
2018-10-12T02:42:50.992Z,23.50
2018-10-12T02:45:20.174Z,22.05
2018-10-12T02:47:49.322Z,27.85
2018-10-12T02:50:18.521Z,23.52
2018-10-12T02:52:47.654Z,22.60
2018-10-12T02:55:17.047Z,21.23
2018-10-12T02:57:46.245Z,22.57
2018-10-12T03:00:15.376Z,24.10
2018-10-12T03:02:44.679Z,21.93
2018-10-12T03:05:13.797Z,24.67
2018-10-12T03:07:44.011Z,24.23
2018-10-12T03:10:13.226Z,23.57
2018-10-12T03:12:42.538Z,23.53
2018-10-12T03:15:11.816Z,25.82
2018-10-12T03:17:41.080Z,24.72
2018-10-12T03:20:10.318Z,24.87
2018-10-12T03:22:39.470Z,22.50
2018-10-12T03:25:08.789Z,24.60
2018-10-12T03:27:49.189Z,27.90
2018-10-12T03:30:18.721Z,25.23
2018-10-12T03:32:48.173Z,26.87
2018-10-12T03:35:17.551Z,21.37
2018-10-12T03:37:46.743Z,23.00
2018-10-12T03:40:15.979Z,28.07
2018-10-12T03:42:45.183Z,21.57
2018-10-12T03:45:14.463Z,24.73
2018-10-12T03:47:43.647Z,23.30
2018-10-12T03:50:12.937Z,23.27
2018-10-12T03:52:42.090Z,22.10
2018-10-12T03:55:11.443Z,24.93
2018-10-12T03:57:40.592Z,21.30
2018-10-12T04:00:09.835Z,23.37
2018-10-12T04:02:39.760Z,24.63
2018-10-12T04:05:09.073Z,24.90
2018-10-12T04:07:38.222Z,25.77
2018-10-12T04:10:07.424Z,22.87
2018-10-12T04:12:36.619Z,27.15
2018-10-12T04:15:05.826Z,24.50
2018-10-12T04:17:35.031Z,23.20
2018-10-12T04:20:04.288Z,25.30
2018-10-12T04:22:33.381Z,23.20
2018-10-12T04:25:02.550Z,24.07
2018-10-12T04:27:31.728Z,25.97
2018-10-12T04:30:00.876Z,23.57
2018-10-12T04:32:30.948Z,23.05
2018-10-12T04:35:00.061Z,25.10
2018-10-12T04:37:29.217Z,21.80
2018-10-12T04:40:02.644Z,24.73
2018-10-12T04:42:31.800Z,25.23
2018-10-12T04:45:01.004Z,26.17
2018-10-12T04:47:31.764Z,28.17
2018-10-12T04:50:01.777Z,26.17
2018-10-12T04:52:32.320Z,28.77
2018-10-12T04:55:01.525Z,24.67
2018-10-12T04:57:30.629Z,23.50
2018-10-12T04:59:59.853Z,28.90
2018-10-12T05:02:29.056Z,24.27
2018-10-12T05:04:58.280Z,25.52
2018-10-12T05:07:27.501Z,26.80
2018-10-12T05:09:56.777Z,24.10
2018-10-12T05:12:25.888Z,23.33
2018-10-12T05:14:55.041Z,24.90
2018-10-12T05:17:24.232Z,27.40
2018-10-12T05:19:53.428Z,26.90
2018-10-12T05:22:22.597Z,26.60
2018-10-12T05:24:51.746Z,22.27
2018-10-12T05:27:20.876Z,24.47
2018-10-12T05:29:50.058Z,26.60
2018-10-12T05:32:19.224Z,25.03
2018-10-12T05:34:48.384Z,29.17
2018-10-12T05:37:17.551Z,28.75
2018-10-12T05:39:46.702Z,26.30
2018-10-12T05:42:15.888Z,27.00
2018-10-12T05:44:45.019Z,28.57
2018-10-12T05:47:14.206Z,26.17
2018-10-12T05:49:56.009Z,27.98
2018-10-12T05:52:25.198Z,28.87
2018-10-12T05:54:54.504Z,32.45
2018-10-12T05:57:23.769Z,25.85
2018-10-12T05:59:53.004Z,25.48
2018-10-12T06:02:22.454Z,27.20
2018-10-12T06:04:51.685Z,25.00
2018-10-12T06:07:20.884Z,27.17
2018-10-12T06:09:50.520Z,24.70
2018-10-12T06:12:19.710Z,25.57
2018-10-12T06:14:48.924Z,26.62
2018-10-12T06:17:18.099Z,27.27
2018-10-12T06:19:47.300Z,24.40
2018-10-12T06:22:16.472Z,24.73
2018-10-12T06:24:45.596Z,25.03
2018-10-12T06:27:14.740Z,28.23
2018-10-12T06:29:43.910Z,25.07
2018-10-12T06:32:13.078Z,26.30
2018-10-12T06:34:42.185Z,29.17
2018-10-12T06:37:11.373Z,29.07
2018-10-12T06:39:40.495Z,29.05
2018-10-12T06:42:09.683Z,28.03
2018-10-12T06:44:38.844Z,34.43
2018-10-12T06:47:08.589Z,32.13
2018-10-12T06:49:37.771Z,30.47
2018-10-12T06:52:06.933Z,26.57
2018-10-12T06:54:36.103Z,29.40
2018-10-12T06:57:05.287Z,30.82
2018-10-12T06:59:34.557Z,26.03
2018-10-12T07:02:03.840Z,26.97
2018-10-12T07:04:33.110Z,27.27
2018-10-12T07:07:02.335Z,28.47
2018-10-12T07:09:31.476Z,29.00
2018-10-12T07:12:00.617Z,27.67
2018-10-12T07:14:30.033Z,23.00
2018-10-12T07:16:59.210Z,27.20
2018-10-12T07:19:28.390Z,25.10
2018-10-12T07:21:57.577Z,25.17
2018-10-12T07:24:26.682Z,24.50
2018-10-12T07:26:55.784Z,24.07
2018-10-12T07:29:25.227Z,24.20
2018-10-12T07:31:54.127Z,22.30
2018-10-12T07:34:23.310Z,20.47
2018-10-12T07:36:52.535Z,26.07
2018-10-12T07:39:21.704Z,21.95
2018-10-12T07:41:51.187Z,24.37
2018-10-12T07:44:20.386Z,19.93
2018-10-12T07:46:49.653Z,20.70
2018-10-12T07:49:18.856Z,16.77
2018-10-12T07:51:48.027Z,18.23
2018-10-12T07:54:17.165Z,19.82
2018-10-12T07:56:46.364Z,17.40
2018-10-12T07:59:15.621Z,17.15
2018-10-12T08:01:44.817Z,17.57
2018-10-12T08:04:13.957Z,18.47
2018-10-12T08:06:43.184Z,17.97
2018-10-12T08:09:12.385Z,14.93
2018-10-12T08:11:41.536Z,16.17
2018-10-12T08:14:10.821Z,15.88
2018-10-12T08:16:40.024Z,14.27
2018-10-12T08:19:11.752Z,15.47
2018-10-12T08:21:40.902Z,14.30
2018-10-12T08:24:10.042Z,16.27
2018-10-12T08:26:39.208Z,13.18
2018-10-12T08:29:08.328Z,17.65
2018-10-12T08:31:37.612Z,13.60
2018-10-12T08:34:06.781Z,12.70
2018-10-12T08:36:36.017Z,11.90
2018-10-12T08:39:08.347Z,14.30
2018-10-12T08:41:37.663Z,14.93
2018-10-12T08:44:06.852Z,13.87
2018-10-12T08:46:36.108Z,12.97
2018-10-12T08:49:06.025Z,15.38
2018-10-12T08:51:35.820Z,12.40
2018-10-12T08:54:04.996Z,11.87
2018-10-12T08:56:34.139Z,13.22
2018-10-12T08:59:03.333Z,14.40
2018-10-12T09:01:32.522Z,11.40
2018-10-12T09:04:01.678Z,14.10
2018-10-12T09:06:30.817Z,14.20
2018-10-12T09:09:00.717Z,11.73
2018-10-12T09:11:29.901Z,9.90
2018-10-12T09:13:59.109Z,11.25
2018-10-12T09:16:28.351Z,12.63
2018-10-12T09:18:57.452Z,9.57
2018-10-12T09:21:26.601Z,14.37
2018-10-12T09:23:55.701Z,11.00
2018-10-12T09:26:24.875Z,8.53
2018-10-12T09:28:54.180Z,9.27
2018-10-12T09:31:23.336Z,12.03
2018-10-12T09:33:52.672Z,8.80
2018-10-12T09:36:21.893Z,8.00
2018-10-12T09:38:51.049Z,7.17
2018-10-12T09:41:20.267Z,9.50
2018-10-12T09:43:49.403Z,9.53
2018-10-12T09:46:18.591Z,11.07
2018-10-12T09:48:48.928Z,7.30
2018-10-12T09:51:18.062Z,8.37
2018-10-12T09:53:47.193Z,7.23
2018-10-12T09:56:16.413Z,8.27
2018-10-12T09:58:45.583Z,6.67
2018-10-12T10:01:19.832Z,7.73
2018-10-12T10:03:54.239Z,7.63
2018-10-12T10:06:23.403Z,7.30
2018-10-12T10:08:52.600Z,6.23
2018-10-12T10:11:21.738Z,7.63
2018-10-12T10:13:51.258Z,6.70
2018-10-12T10:16:20.456Z,8.60
2018-10-12T10:18:49.604Z,7.10
2018-10-12T10:21:19.265Z,9.43
2018-10-12T10:23:48.686Z,6.77
2018-10-12T10:26:17.848Z,6.03
2018-10-12T10:28:47.137Z,6.23
2018-10-12T10:31:16.312Z,8.67
2018-10-12T10:33:45.532Z,6.73
2018-10-12T10:36:14.703Z,8.20
2018-10-12T10:38:43.886Z,5.93
2018-10-12T10:41:13.000Z,6.10
2018-10-12T10:43:42.184Z,6.40
2018-10-12T10:46:11.381Z,8.28
2018-10-12T10:48:40.477Z,6.63
2018-10-12T10:51:09.760Z,6.57
2018-10-12T10:53:39.063Z,7.57
2018-10-12T10:56:08.297Z,7.00
2018-10-12T10:58:37.736Z,9.33
2018-10-12T11:01:06.960Z,8.97
2018-10-12T11:03:36.081Z,7.83
2018-10-12T11:06:05.225Z,6.73
2018-10-12T11:08:34.416Z,6.50
2018-10-12T11:11:03.597Z,9.53
2018-10-12T11:13:32.700Z,7.60
2018-10-12T11:16:01.970Z,6.33
2018-10-12T11:18:31.107Z,8.00
2018-10-12T11:21:00.283Z,7.50
2018-10-12T11:23:29.462Z,6.50
2018-10-12T11:25:58.692Z,7.87
2018-10-12T11:28:27.898Z,6.13
2018-10-12T11:30:57.136Z,6.07
2018-10-12T11:33:26.249Z,7.80
2018-10-12T11:35:55.411Z,7.10
2018-10-12T11:38:25.711Z,8.97
2018-10-12T11:40:54.846Z,5.93
2018-10-12T11:43:34.332Z,5.63
2018-10-12T11:46:03.525Z,6.80
2018-10-12T11:48:32.756Z,5.50
2018-10-12T11:51:02.205Z,5.83
2018-10-12T11:53:31.596Z,10.58
2018-10-12T11:56:00.754Z,6.43
2018-10-12T11:58:29.912Z,6.00
2018-10-12T12:00:59.153Z,5.87
2018-10-12T12:03:28.290Z,5.77
2018-10-12T12:05:57.482Z,6.67
2018-10-12T12:08:26.608Z,6.20
2018-10-12T12:10:55.740Z,7.53
2018-10-12T12:13:25.327Z,5.60
2018-10-12T12:15:54.492Z,7.40
2018-10-12T12:18:30.325Z,5.03
2018-10-12T12:20:59.498Z,5.80
2018-10-12T12:23:28.588Z,4.40
2018-10-12T12:25:57.756Z,6.10
2018-10-12T12:28:27.018Z,4.45
2018-10-12T12:30:56.137Z,4.33
2018-10-12T12:33:25.336Z,5.80
2018-10-12T12:35:54.859Z,4.90
2018-10-12T12:38:23.606Z,6.80
2018-10-12T12:40:52.800Z,4.83
2018-10-12T12:43:21.905Z,6.40
2018-10-12T12:45:51.012Z,5.73
2018-10-12T12:48:20.535Z,7.87
2018-10-12T12:50:49.361Z,5.27
2018-10-12T12:53:18.549Z,5.33
2018-10-12T12:55:47.729Z,4.80
2018-10-12T12:58:16.845Z,4.80
2018-10-12T13:00:46.151Z,4.30
2018-10-12T13:03:15.687Z,4.30
2018-10-12T13:05:44.829Z,5.37
2018-10-12T13:08:14.032Z,6.40
2018-10-12T13:10:43.156Z,6.73
2018-10-12T13:13:12.287Z,6.37
2018-10-12T13:15:41.423Z,4.17
2018-10-12T13:18:10.607Z,5.07
2018-10-12T13:20:39.692Z,5.03
2018-10-12T13:23:08.804Z,6.70
2018-10-12T13:25:38.037Z,3.52
2018-10-12T13:28:07.182Z,6.08
2018-10-12T13:30:36.329Z,4.47
2018-10-12T13:33:05.501Z,5.35
2018-10-12T13:35:35.053Z,7.03
2018-10-12T13:38:04.269Z,9.03
2018-10-12T13:40:33.404Z,5.23
2018-10-12T13:43:02.556Z,5.65
2018-10-12T13:45:31.669Z,5.10
2018-10-12T13:48:00.757Z,4.93
2018-10-12T13:50:30.318Z,4.28
2018-10-12T13:52:59.467Z,3.20
2018-10-12T13:55:28.921Z,3.93
2018-10-12T13:57:58.068Z,4.83
2018-10-12T14:00:27.216Z,5.33
2018-10-12T14:02:56.429Z,2.90
2018-10-12T14:05:25.696Z,4.33
2018-10-12T14:07:54.900Z,4.25
2018-10-12T14:10:24.195Z,6.60
2018-10-12T14:12:53.269Z,4.85
2018-10-12T14:15:22.676Z,3.57
2018-10-12T14:17:51.815Z,3.30
2018-10-12T14:20:20.984Z,4.63
2018-10-12T14:22:50.148Z,5.80
2018-10-12T14:25:19.428Z,3.08
2018-10-12T14:27:48.517Z,4.45
2018-10-12T14:30:17.692Z,6.67
2018-10-12T14:32:47.616Z,3.87
2018-10-12T14:35:17.069Z,4.57
2018-10-12T14:37:46.297Z,3.47
2018-10-12T14:40:15.459Z,3.50
2018-10-12T14:42:44.651Z,5.30
2018-10-12T14:45:13.839Z,4.33
2018-10-12T14:47:43.045Z,3.77
2018-10-12T14:50:12.290Z,4.90
2018-10-12T14:52:41.671Z,4.47
2018-10-12T14:55:10.843Z,5.13
2018-10-12T14:57:40.001Z,4.42
2018-10-12T15:00:09.883Z,3.97
2018-10-12T15:02:39.020Z,5.83
2018-10-12T15:05:08.242Z,4.80
2018-10-12T15:07:37.452Z,4.50
2018-10-12T15:10:06.563Z,7.67
2018-10-12T15:12:35.838Z,6.92
2018-10-12T15:15:19.016Z,6.33
2018-10-12T15:17:49.127Z,4.03
2018-10-12T15:20:18.355Z,4.70
2018-10-12T15:22:47.532Z,4.33
2018-10-12T15:25:16.706Z,4.90
2018-10-12T15:27:46.039Z,4.13
2018-10-12T15:30:15.785Z,5.00
2018-10-12T15:32:45.004Z,4.00
2018-10-12T15:35:14.168Z,4.20
2018-10-12T15:37:43.983Z,6.17
2018-10-12T15:40:13.129Z,7.67
2018-10-12T15:42:42.309Z,6.10
2018-10-12T15:45:11.432Z,5.57
2018-10-12T15:47:40.603Z,3.45
2018-10-12T15:50:10.286Z,4.73
2018-10-12T15:52:40.405Z,5.17
2018-10-12T15:55:10.164Z,6.10
2018-10-12T15:57:40.157Z,4.80
2018-10-12T16:00:09.852Z,5.53
2018-10-12T16:02:39.841Z,4.73
2018-10-12T16:05:09.643Z,3.90
2018-10-12T16:07:39.329Z,3.97
2018-10-12T16:10:09.064Z,4.33
2018-10-12T16:12:38.983Z,3.52
2018-10-12T16:15:08.169Z,3.97
2018-10-12T16:17:37.325Z,4.60
2018-10-12T16:20:06.603Z,3.40
2018-10-12T16:22:35.801Z,4.23
2018-10-12T16:25:16.173Z,4.07
2018-10-12T16:27:45.374Z,5.13
2018-10-12T16:30:14.511Z,5.97
2018-10-12T16:32:43.758Z,3.90
2018-10-12T16:35:12.932Z,4.73
2018-10-12T16:37:42.039Z,4.13
2018-10-12T16:40:11.154Z,4.25
2018-10-12T16:42:40.331Z,4.07
2018-10-12T16:45:09.468Z,6.47
2018-10-12T16:47:38.611Z,4.70
2018-10-12T16:50:07.853Z,4.43
2018-10-12T16:52:37.019Z,7.23
2018-10-12T16:55:06.191Z,6.20
2018-10-12T16:57:36.067Z,4.50
2018-10-12T17:00:05.943Z,4.35
2018-10-12T17:02:35.086Z,4.60
2018-10-12T17:05:04.341Z,5.37
2018-10-12T17:07:33.496Z,4.83
2018-10-12T17:10:02.640Z,6.70
2018-10-12T17:12:32.884Z,4.83
2018-10-12T17:15:02.028Z,6.43
2018-10-12T17:17:31.760Z,5.53
2018-10-12T17:20:00.946Z,6.40
2018-10-12T17:22:30.120Z,4.67
2018-10-12T17:24:59.409Z,7.60
2018-10-12T17:27:28.521Z,5.93
2018-10-12T17:29:57.655Z,5.37
2018-10-12T17:32:26.865Z,5.57
2018-10-12T17:34:56.282Z,7.80
2018-10-12T17:37:25.499Z,5.67
2018-10-12T17:39:54.717Z,5.10
2018-10-12T17:42:24.832Z,5.67
2018-10-12T17:44:54.089Z,6.07
2018-10-12T17:47:23.287Z,5.20
2018-10-12T17:49:52.564Z,5.63
2018-10-12T17:52:21.870Z,6.57
2018-10-12T17:54:51.101Z,6.47
2018-10-12T17:57:22.449Z,6.60
2018-10-12T17:59:52.245Z,7.37
2018-10-12T18:02:21.561Z,6.00
2018-10-12T18:04:50.692Z,5.60
2018-10-12T18:07:19.893Z,5.43
2018-10-12T18:09:49.076Z,6.20
2018-10-12T18:12:18.167Z,6.00
2018-10-12T18:14:47.343Z,5.75
2018-10-12T18:17:16.485Z,5.83
2018-10-12T18:19:46.434Z,7.08
2018-10-12T18:22:15.676Z,7.33
2018-10-12T18:24:44.814Z,6.37
2018-10-12T18:27:13.967Z,7.87
2018-10-12T18:29:43.172Z,7.77
2018-10-12T18:32:12.349Z,7.50
2018-10-12T18:34:41.505Z,7.50
2018-10-12T18:37:10.684Z,9.77
2018-10-12T18:39:39.773Z,9.93
2018-10-12T18:42:08.933Z,9.60
2018-10-12T18:44:38.128Z,8.93
2018-10-12T18:47:07.435Z,9.83
2018-10-12T18:49:36.649Z,7.53
2018-10-12T18:52:06.691Z,11.85
2018-10-12T18:54:35.873Z,8.77
2018-10-12T18:57:05.125Z,10.63
2018-10-12T18:59:34.354Z,11.00
2018-10-12T19:02:03.469Z,8.68
2018-10-12T19:04:33.118Z,10.03
2018-10-12T19:07:02.363Z,8.80
2018-10-12T19:09:31.513Z,10.80
2018-10-12T19:12:00.667Z,10.67
2018-10-12T19:14:29.836Z,9.40
2018-10-12T19:16:58.978Z,9.60
2018-10-12T19:19:28.180Z,9.77
2018-10-12T19:21:57.271Z,11.47
2018-10-12T19:24:26.451Z,8.97
2018-10-12T19:26:55.630Z,10.17
2018-10-12T19:29:24.766Z,9.73
2018-10-12T19:31:53.986Z,11.05
2018-10-12T19:34:23.122Z,9.90
2018-10-12T19:36:52.317Z,10.37
2018-10-12T19:39:21.532Z,11.67
2018-10-12T19:41:50.747Z,10.37
2018-10-12T19:44:19.936Z,9.13
2018-10-12T19:46:49.091Z,10.68
2018-10-12T19:49:18.200Z,9.83
2018-10-12T19:51:47.553Z,13.10
2018-10-12T19:54:16.701Z,9.90
2018-10-12T19:56:45.877Z,11.50
2018-10-12T19:59:15.198Z,9.43
2018-10-12T20:01:44.339Z,10.10
2018-10-12T20:04:13.460Z,8.93
2018-10-12T20:06:42.732Z,8.63
2018-10-12T20:09:12.513Z,9.17
2018-10-12T20:11:42.256Z,8.55
2018-10-12T20:14:11.396Z,9.70
2018-10-12T20:16:40.567Z,8.40
2018-10-12T20:19:10.041Z,10.00
2018-10-12T20:21:39.207Z,9.53
2018-10-12T20:24:08.811Z,7.93
2018-10-12T20:26:37.931Z,8.30
2018-10-12T20:29:07.105Z,10.43
2018-10-12T20:31:36.471Z,8.53
2018-10-12T20:34:05.613Z,7.20
2018-10-12T20:36:34.760Z,8.70
2018-10-12T20:39:04.841Z,8.53
2018-10-12T20:41:33.974Z,8.43
2018-10-12T20:44:03.109Z,8.00
2018-10-12T20:46:32.343Z,7.03
2018-10-12T20:49:01.568Z,8.65
2018-10-12T20:51:30.768Z,7.55
2018-10-12T20:54:00.990Z,7.93
2018-10-12T20:56:30.144Z,7.43
2018-10-12T20:58:59.309Z,7.73
2018-10-12T21:01:28.446Z,7.15
2018-10-12T21:03:57.642Z,8.25
2018-10-12T21:06:26.834Z,9.13
2018-10-12T21:08:56.029Z,8.20
2018-10-12T21:11:25.822Z,6.77
2018-10-12T21:13:56.417Z,7.73
2018-10-12T21:16:25.670Z,11.43
2018-10-12T21:18:54.816Z,7.33
2018-10-12T21:21:24.008Z,7.78
2018-10-12T21:23:53.333Z,8.67
2018-10-12T21:26:22.666Z,8.03
2018-10-12T21:28:51.800Z,9.20
2018-10-12T21:31:21.032Z,7.07
2018-10-12T21:33:50.186Z,7.50
2018-10-12T21:36:19.354Z,6.60
2018-10-12T21:38:48.686Z,10.13
2018-10-12T21:41:17.891Z,8.60
2018-10-12T21:43:47.029Z,8.27
2018-10-12T21:46:16.219Z,8.03
2018-10-12T21:48:45.434Z,7.58
2018-10-12T21:51:14.553Z,8.63
2018-10-12T21:53:43.735Z,8.60
2018-10-12T21:56:12.944Z,7.67
2018-10-12T21:58:42.152Z,8.13
2018-10-12T22:01:11.295Z,7.87
2018-10-12T22:03:46.131Z,7.50
2018-10-12T22:06:15.324Z,8.27
2018-10-12T22:08:49.762Z,7.37
2018-10-12T22:11:18.896Z,7.03
2018-10-12T22:13:48.164Z,10.85
2018-10-12T22:16:17.257Z,7.70
2018-10-12T22:18:46.412Z,7.70
2018-10-12T22:21:15.568Z,7.27
2018-10-12T22:23:44.697Z,10.20
2018-10-12T22:26:13.961Z,7.50
2018-10-12T22:28:43.156Z,7.70
2018-10-12T22:31:12.288Z,8.40
2018-10-12T22:33:41.583Z,7.73
2018-10-12T22:36:10.932Z,8.17
2018-10-12T22:38:40.085Z,11.63
2018-10-12T22:41:09.221Z,7.03
2018-10-12T22:43:38.428Z,6.30
2018-10-12T22:46:07.620Z,6.30
2018-10-12T22:48:36.801Z,6.60
2018-10-12T22:51:06.266Z,11.17
2018-10-12T22:53:35.408Z,8.97
2018-10-12T22:56:04.678Z,6.40
2018-10-12T22:58:33.959Z,7.85
2018-10-12T23:01:03.141Z,7.60
2018-10-12T23:03:32.347Z,6.73
2018-10-12T23:06:01.493Z,9.03
2018-10-12T23:08:30.607Z,7.07
2018-10-12T23:10:59.786Z,8.37
2018-10-12T23:13:28.902Z,9.10
2018-10-12T23:15:58.140Z,6.67
2018-10-12T23:18:27.370Z,6.57
2018-10-12T23:20:56.530Z,6.57
2018-10-12T23:23:25.740Z,6.33
2018-10-12T23:25:55.004Z,6.33
2018-10-12T23:28:24.416Z,7.50
2018-10-12T23:30:53.848Z,6.13
2018-10-12T23:33:34.126Z,5.90
2018-10-12T23:36:03.336Z,6.15
2018-10-12T23:38:32.582Z,6.03
2018-10-12T23:41:01.746Z,6.70
2018-10-12T23:43:30.910Z,6.73
2018-10-12T23:46:00.124Z,6.43
2018-10-12T23:48:29.345Z,6.27
2018-10-12T23:50:58.491Z,7.92
2018-10-12T23:53:27.617Z,6.03
2018-10-12T23:55:56.902Z,6.57
2018-10-12T23:58:26.082Z,6.60
